MAPA DE AEROPUERTO

INFORMACIÓN METAR y TAF


Deprecated: The each() function is deprecated. This message will be suppressed on further calls in /home/customer/www/clickair-va.com/public_html/VAM/vam/helpers/get_metar.php on line 20
METAR FOR GCXO
ADDS - METARS form results

(0311 UTC 25 May 2022)
Data provider http://aviationweather.gov/metar/data/
 
METAR text: GCXO 250300Z AUTO 35008KT 310V020 9999 BKN013 BKN019 OVC024 15/12 Q1019
Conditions at: GCXO (TENERIFE/LOS ROD, ES) observed 0300 UTC 25 May 2022
Temperature: 15.0°C (59°F)
Dewpoint: 12.0°C (54°F) [RH = 82%]
Pressure (altimeter): 30.09 inches Hg (1019.0 mb)
Winds: from the N (350 degrees) at 9 MPH (8 knots; 4.1 m/s)
Visibility: 6 or more miles (10+ km)
Ceiling: 1300 feet AGL
Clouds: broken clouds at 1300 feet AGL
broken clouds at 1900 feet AGL
overcast cloud deck at 2400 feet AGL
Weather: no significant weather observed at this time

METAR text: GCXO 250230Z AUTO 31008KT 270V340 9000 FEW006 BKN013 OVC019 15/12 Q1020
Conditions at: GCXO (TENERIFE/LOS ROD, ES) observed 0230 UTC 25 May 2022
Temperature: 15.0°C (59°F)
Dewpoint: 12.0°C (54°F) [RH = 82%]
Pressure (altimeter): 30.12 inches Hg (1020.0 mb)
Winds: from the NW (310 degrees) at 9 MPH (8 knots; 4.1 m/s)
Visibility: 6 miles ( 9 km)
Ceiling: 1300 feet AGL
Clouds: few clouds at 600 feet AGL
broken clouds at 1300 feet AGL
overcast cloud deck at 1900 feet AGL
Weather: no significant weather observed at this time

Forecast for: GCXO (TENERIFE/LOS ROD, ES)
Text: TAF GCXO 250200Z 2503/2603 33009KT 9999 BKN015 TX21/2514Z TN14/2506Z
Forecast period: 0300 UTC 25 May 2022 to 0300 UTC 26 May 2022
Forecast type: FROM: standard forecast or significant change
Winds: from the NNW (330 degrees) at 10 MPH (9 knots; 4.6 m/s)
Visibility: 6 or more miles (10+ km)
Ceiling: 1500 feet AGL
Clouds: broken clouds at 1500 feet AGL
Weather: no significant weather forecast for this period
Text: PROB40
Forecast period: 0300 to 1000 UTC 25 May 2022
Forecast type: TEMPORARY: The following changes expected for less than half the time period
Visibility: 1.55 miles (2.49 km)
Ceiling: 800 feet AGL
Clouds: broken clouds at 800 feet AGL
Weather: BCFG  (patches of fog)